Carbury, North Dakota
Current Conditions -  °F | °C
As of 6:58 PM on Saturday 25 Oct 2014 (Local Time) from KMIB Reporting Station
Clear Clear  
Wind Chill: 45°   Ceiling: Unl
Heat Index: 48°   Visibility: 10mi
Dew Point: 32°   Wind: 6mph
Humidity: 54%   Direction: 140°SE
Pressure: 29.98"   Gusts: NA
Location:  48.9505°N, 100.734°W
Report Text: KMIB 252358Z AUTO 14005KT 10SM CLR 09/00 A2998 RMK AO2 SLP169 T00871001 10160 20087 57020 $
Loading
Personal Weather Stations






























Interactive Weather Map
Tropical Storm Tracking
New forecast layout! Learn more

10-Day Weather Forecast

Advertisements
Track Severe Weather on mobile